Airfield :
LOGIN :

Register | Disclaimer

   EN    FR    IT 

 










Legend :    VFR   Marginal VFR   IFR   Intensive IFR   Very Intensive IFR
Visi :
Ceiling :
>= 8 km
>= 3000ft
5 to 8 km
1000 to 3000 ft
1500m to 5 km
500 to 1000 ft
800 to 1500m
200 to 500 ft
< 800m
< 200 ft
Symbols :   Thunderstorms  Fog  Heavy snow  Heavy precipitations  Wind > 20 kt
SIGMETs :     Misc.  Thunderstorms  Icing  Turbulence  Mountain Waves  Volcanic Ashes






- Airport Elevation : 53 ft
- IATA code : AGP


LEMG - Malaga

CURRENT METAR :
  • 062000Z 22003KT 190V340 9999 SCT020 13/12 Q1021 NOSIG

EXPIRED METARs :
  • 061930Z 22003KT 9999 FEW025 14/13 Q1021 NOSIG
  • 061900Z 19004KT 9999 FEW025 15/13 Q1020 NOSIG
  • 061830Z 18003KT 9999 FEW025 15/13 Q1020 NOSIG
  • 061800Z 15004KT 9999 FEW030 15/13 Q1020 NOSIG
  • 061730Z 14005KT 9999 FEW030 15/12 Q1019 NOSIG

TAF TAF LEMG
Valid from the 06 at 18:00 until the 07 at 18:00 UTC


061700Z 0618/0718 13008KT 9999 FEW025 TX19/0712Z TN09/0706Z
BECMG 0618/0621 29009KT



MET'MAP, your aeronautical weather chart ! - Copyright ORBIFLY December 2007 - Disclaimer

ORBIFLY MET'MAP TEAM :

Programming & Development : Alexandra Zaïnal
Concept & original design : Baudouin d'Aumeries
Assistance for programming : Marc-Olivier Méhu
Technical & hardware support : Manuel Goepfert

Contact : metmap@orbifly.com




SOURCES & CREDITS :

   NOAA